North Salem, New Hampshire
Current Conditions -  °F | °C
As of 11:11 PM on Thursday 18 Dec 2014 (Local Time) from KLWM Reporting Station
Overcast Overcast  
Wind Chill: 28°   Ceiling: 3100
Heat Index: 36°   Visibility: 10mi
Dew Point: 26°   Wind: 10mph
Humidity: 67%   Direction: 300°WNW
Pressure: 29.86"   Gusts: NA
Location:  42.84°N, 71.22°W
Report Text: KLWM 190411Z 30009KT 10SM BKN031 OVC049 02/M03 A2986 RMK AO2 T00221033
Loading
Personal Weather Stations






























Interactive Weather Map New forecast layout! Learn more

10-Day Weather Forecast

Advertisements
Track Severe Weather on mobile